createdAt,value
2023-01-01T00:00:19.764Z,9.661769
2023-01-01T00:01:19.704Z,9.661735
2023-01-01T00:02:19.682Z,9.661700
2023-01-01T00:03:19.714Z,9.661681
2023-01-01T00:04:19.678Z,9.661641
2023-01-01T00:05:19.672Z,9.661736
2023-01-01T00:06:19.687Z,9.661562
2023-01-01T00:07:19.805Z,9.661457
2023-01-01T00:08:19.629Z,9.661522
2023-01-01T00:09:19.636Z,9.661566
2023-01-01T00:10:19.646Z,9.661652
2023-01-01T00:11:19.613Z,9.661690
2023-01-01T00:12:19.685Z,9.661737
2023-01-01T00:13:19.577Z,9.661630
2023-01-01T00:14:19.629Z,9.661660
2023-01-01T00:15:19.609Z,9.661684
2023-01-01T00:16:19.614Z,9.661755
2023-01-01T00:17:19.613Z,9.661719
2023-01-01T00:18:19.643Z,9.661654
2023-01-01T00:19:19.602Z,9.661665
2023-01-01T00:20:19.593Z,9.661547
2023-01-01T00:21:19.559Z,9.661626
2023-01-01T00:23:21.668Z,9.661514
2023-01-01T00:24:19.538Z,9.661606
2023-01-01T00:25:19.564Z,9.661600
2023-01-01T00:26:19.568Z,9.661559
2023-01-01T00:27:19.540Z,9.661576
2023-01-01T00:28:19.531Z,9.661497
2023-01-01T00:29:19.530Z,9.661533
2023-01-01T00:30:19.578Z,9.661575
2023-01-01T00:31:19.600Z,9.661619
2023-01-01T00:32:22.809Z,9.661569
2023-01-01T00:33:19.528Z,9.661520
2023-01-01T00:34:19.476Z,9.661427
2023-01-01T00:35:19.530Z,9.661333
2023-01-01T00:36:19.484Z,9.661555
2023-01-01T00:37:19.505Z,9.661798
2023-01-01T00:38:19.468Z,9.661616
2023-01-01T00:39:19.465Z,9.661532
2023-01-01T00:40:19.605Z,9.661591
2023-01-01T00:41:19.452Z,9.661564
2023-01-01T00:42:19.482Z,9.661544
2023-01-01T00:43:19.450Z,9.661763
2023-01-01T00:44:19.434Z,9.661731
2023-01-01T00:45:22.256Z,9.661756
2023-01-01T00:46:19.482Z,9.661716
2023-01-01T00:47:19.452Z,9.661573
2023-01-01T00:48:19.443Z,9.661753
2023-01-01T00:49:19.388Z,9.661797
2023-01-01T00:50:19.423Z,9.661629
2023-01-01T00:51:19.443Z,9.661696
2023-01-01T00:52:19.351Z,9.661567
2023-01-01T00:53:19.382Z,9.661682
2023-01-01T00:54:19.392Z,9.661586
2023-01-01T00:55:19.383Z,9.661653
2023-01-01T00:56:19.394Z,9.661632
2023-01-01T00:57:19.341Z,9.661610
2023-01-01T00:58:19.324Z,9.661607
2023-01-01T00:59:21.569Z,9.661551
2023-01-01T01:00:20.358Z,9.661509
2023-01-01T01:01:20.480Z,9.661654
2023-01-01T01:02:19.470Z,9.661623
2023-01-01T01:03:19.393Z,9.661498
2023-01-01T01:04:19.314Z,9.661494
2023-01-01T01:05:19.319Z,9.661510
2023-01-01T01:06:19.277Z,9.661622
2023-01-01T01:07:19.390Z,9.661715
2023-01-01T01:08:19.287Z,9.661864
2023-01-01T01:09:19.291Z,9.661697
2023-01-01T01:10:19.259Z,9.661614
2023-01-01T01:11:19.287Z,9.661522
2023-01-01T01:12:19.270Z,9.661520
2023-01-01T01:13:19.895Z,9.661532
2023-01-01T01:14:19.299Z,9.661643
2023-01-01T01:15:19.246Z,9.661746
2023-01-01T01:16:19.267Z,9.661733
2023-01-01T01:17:19.259Z,9.661863
2023-01-01T01:18:19.377Z,9.661794
2023-01-01T01:19:19.187Z,9.661617
2023-01-01T01:20:19.182Z,9.661618
2023-01-01T01:21:19.205Z,9.661682
2023-01-01T01:22:22.918Z,9.661759
2023-01-01T01:23:21.235Z,9.661829
2023-01-01T01:24:19.155Z,9.661752
2023-01-01T01:25:19.212Z,9.661788
2023-01-01T01:26:19.152Z,9.661653
2023-01-01T01:27:19.189Z,9.661420
2023-01-01T01:28:19.196Z,9.661592
2023-01-01T01:29:19.174Z,9.661598
2023-01-01T01:30:19.125Z,9.661585
2023-01-01T01:31:19.200Z,9.661680
2023-01-01T01:32:19.159Z,9.661649
2023-01-01T01:33:19.138Z,9.661600
2023-01-01T01:34:24.130Z,9.661624
2023-01-01T01:35:20.110Z,9.661653
2023-01-01T01:36:19.147Z,9.661572
2023-01-01T01:37:19.105Z,9.661581
2023-01-01T01:38:19.082Z,9.661598
2023-01-01T01:39:19.252Z,9.661674
2023-01-01T01:40:19.076Z,9.661665
2023-01-01T01:41:27.773Z,9.661659
2023-01-01T01:42:21.101Z,9.661657
2023-01-01T01:43:19.079Z,9.661562
2023-01-01T01:44:19.059Z,9.661502
2023-01-01T01:45:19.177Z,9.661517
2023-01-01T01:46:19.084Z,9.661737
2023-01-01T01:47:19.057Z,9.661700
2023-01-01T01:48:19.032Z,9.661625
2023-01-01T01:49:19.043Z,9.661603
2023-01-01T01:50:19.088Z,9.661567
2023-01-01T01:51:19.039Z,9.661530
2023-01-01T01:52:19.005Z,9.661495
2023-01-01T01:53:18.999Z,9.661563
2023-01-01T01:54:19.000Z,9.661615
2023-01-01T01:55:18.995Z,9.661576
2023-01-01T01:56:19.112Z,9.661724
2023-01-01T01:57:18.980Z,9.661646
2023-01-01T01:58:18.995Z,9.661603
2023-01-01T01:59:18.993Z,9.661577
2023-01-01T02:00:18.988Z,9.661614
2023-01-01T02:01:19.095Z,9.661553
2023-01-01T02:02:19.104Z,9.661656
2023-01-01T02:03:19.032Z,9.661638
2023-01-01T02:04:18.980Z,9.661717
2023-01-01T02:05:18.922Z,9.661587
2023-01-01T02:06:20.174Z,9.661572
2023-01-01T02:07:18.917Z,9.661448
2023-01-01T02:08:18.923Z,9.661436
2023-01-01T02:09:18.894Z,9.661491
2023-01-01T02:10:18.922Z,9.661719
2023-01-01T02:11:22.064Z,9.661651
2023-01-01T02:12:18.885Z,9.661542
2023-01-01T02:13:18.890Z,9.661613
2023-01-01T02:14:18.859Z,9.661595
2023-01-01T02:15:18.890Z,9.661608
2023-01-01T02:16:18.894Z,9.661595
2023-01-01T02:17:18.894Z,9.661573
2023-01-01T02:18:18.830Z,9.661584
2023-01-01T02:19:18.864Z,9.661492
2023-01-01T02:20:18.838Z,9.661571
2023-01-01T02:21:18.843Z,9.661528
2023-01-01T02:22:18.843Z,9.661662
2023-01-01T02:23:19.843Z,9.661525
2023-01-01T02:24:18.815Z,9.661550
2023-01-01T02:25:18.831Z,9.661533
2023-01-01T02:26:18.790Z,9.661596
2023-01-01T02:27:18.836Z,9.661558
2023-01-01T02:28:18.820Z,9.661692
2023-01-01T02:29:18.823Z,9.661736
2023-01-01T02:30:18.745Z,9.661579
2023-01-01T02:31:23.141Z,9.661532
2023-01-01T02:32:18.761Z,9.661501
2023-01-01T02:33:18.771Z,9.661523
2023-01-01T02:34:18.785Z,9.661527
2023-01-01T02:35:18.772Z,9.661580
2023-01-01T02:36:18.763Z,9.661647
2023-01-01T02:37:18.750Z,9.661523
2023-01-01T02:38:18.891Z,9.661715
2023-01-01T02:39:18.763Z,9.661799
2023-01-01T02:40:19.726Z,9.662209
2023-01-01T02:41:18.731Z,9.661843
2023-01-01T02:42:18.710Z,9.661671
2023-01-01T02:43:24.422Z,9.661962
2023-01-01T02:44:20.755Z,9.661599
2023-01-01T02:45:18.690Z,9.661367
2023-01-01T03:13:04.219Z,9.661457
2023-01-01T03:14:04.172Z,9.661498
2023-01-01T03:15:04.175Z,9.661549
2023-01-01T03:16:04.191Z,9.661571
2023-01-01T03:17:04.152Z,9.661571
2023-01-01T03:18:04.136Z,9.661571
2023-01-01T03:19:04.152Z,9.661571
2023-01-01T03:20:04.170Z,9.661571
2023-01-01T03:21:04.129Z,9.661571
2023-01-01T03:22:04.112Z,9.661776
2023-01-01T03:23:04.087Z,9.661615
2023-01-01T03:24:04.276Z,9.661501
2023-01-01T03:25:04.099Z,9.661481
2023-01-01T03:26:04.078Z,9.661463
2023-01-01T03:27:04.109Z,9.661468
2023-01-01T03:28:04.061Z,9.661435
2023-01-01T03:29:04.041Z,9.661481
2023-01-01T03:30:04.119Z,9.661514
2023-01-01T03:31:04.084Z,9.661481
2023-01-01T03:32:04.087Z,9.661475
2023-01-01T03:33:04.128Z,9.661515
2023-01-01T03:34:04.051Z,9.661533
2023-01-01T03:35:04.075Z,9.661508
2023-01-01T03:36:04.051Z,9.661498
2023-01-01T03:37:04.032Z,9.661486
2023-01-01T03:38:04.048Z,9.661497
2023-01-01T03:39:04.027Z,9.661502
2023-01-01T03:40:04.009Z,9.661511
2023-01-01T03:41:04.139Z,9.661551
2023-01-01T03:42:03.965Z,9.661542
2023-01-01T03:43:03.987Z,9.661510
2023-01-01T03:44:03.997Z,9.661510
2023-01-01T03:45:03.988Z,9.661510
2023-01-01T03:46:04.040Z,9.661530
2023-01-01T03:47:04.088Z,9.661497
2023-01-01T03:48:03.984Z,9.661497
2023-01-01T03:49:04.671Z,9.661497
2023-01-01T03:50:04.946Z,9.661497
2023-01-01T03:51:03.964Z,9.661380
2023-01-01T03:52:04.027Z,9.661539
2023-01-01T03:53:03.937Z,9.661576
2023-01-01T03:54:03.923Z,9.661527
2023-01-01T03:55:03.917Z,9.661427
2023-01-01T03:56:03.894Z,9.661427
2023-01-01T03:57:03.929Z,9.661525
2023-01-01T03:58:03.897Z,9.661525
2023-01-01T03:59:03.894Z,9.661525
2023-01-01T04:00:03.886Z,9.661525
2023-01-01T04:01:03.973Z,9.661496
2023-01-01T04:02:04.019Z,9.661575
2023-01-01T04:03:03.943Z,9.661638
2023-01-01T04:04:03.840Z,9.661638
2023-01-01T04:05:03.833Z,9.661672
2023-01-01T04:06:03.838Z,9.661483
2023-01-01T04:07:14.909Z,9.661641
2023-01-01T04:08:04.872Z,9.661620
2023-01-01T04:09:03.819Z,9.661585
2023-01-01T04:10:03.829Z,9.661641
2023-01-01T04:11:03.839Z,9.661579
2023-01-01T04:12:03.781Z,9.661570
2023-01-01T04:13:03.801Z,9.661545
2023-01-01T04:14:03.907Z,9.661565
2023-01-01T04:15:03.756Z,9.661667
2023-01-01T04:16:03.859Z,9.661719
2023-01-01T04:17:03.766Z,9.661778
2023-01-01T04:18:03.771Z,9.661601
2023-01-01T04:19:03.771Z,9.661514
2023-01-01T04:20:03.771Z,9.661678
2023-01-01T04:21:03.726Z,9.661710
2023-01-01T04:22:03.685Z,9.661690
2023-01-01T04:23:03.741Z,9.661723
2023-01-01T04:24:03.731Z,9.661783
2023-01-01T04:25:03.752Z,9.661990
2023-01-01T04:26:04.722Z,9.661738
2023-01-01T04:27:03.708Z,9.661551
2023-01-01T04:28:03.736Z,9.661591
2023-01-01T04:29:03.704Z,9.661586
2023-01-01T04:30:03.692Z,9.661714
2023-01-01T04:31:03.655Z,9.661588
2023-01-01T04:32:03.655Z,9.661717
2023-01-01T04:33:03.677Z,9.661895
2023-01-01T04:34:03.672Z,9.661655
2023-01-01T04:35:03.636Z,9.661880
2023-01-01T04:36:03.731Z,9.661901
2023-01-01T04:37:06.972Z,9.661800
2023-01-01T04:38:04.622Z,9.661759
2023-01-01T04:39:03.645Z,9.661762
2023-01-01T04:40:03.612Z,9.661827
2023-01-01T04:41:03.729Z,9.661814
2023-01-01T04:42:03.638Z,9.661777
2023-01-01T04:43:03.613Z,9.661880
2023-01-01T04:44:03.611Z,9.661789
2023-01-01T04:45:03.616Z,9.661779
2023-01-01T04:46:03.719Z,9.661699
2023-01-01T04:47:03.629Z,9.661747
2023-01-01T04:48:03.602Z,9.661720
2023-01-01T04:49:03.609Z,9.661790
2023-01-01T04:50:03.522Z,9.661767
2023-01-01T04:51:03.597Z,9.661795
2023-01-01T04:52:03.569Z,9.661621
2023-01-01T04:53:03.558Z,9.661538
2023-01-01T04:54:03.535Z,9.661656
2023-01-01T04:55:03.547Z,9.661674
2023-01-01T04:56:03.536Z,9.661584
2023-01-01T04:57:03.506Z,9.661541
2023-01-01T04:58:03.627Z,9.661573
2023-01-01T04:59:03.508Z,9.661562
2023-01-01T05:00:03.512Z,9.661586
2023-01-01T05:01:03.599Z,9.661594
2023-01-01T05:02:03.670Z,9.661684
2023-01-01T05:03:03.575Z,9.661714
2023-01-01T05:04:03.472Z,9.661543
2023-01-01T05:05:03.468Z,9.661150
2023-01-01T05:06:03.473Z,9.661120
2023-01-01T05:07:03.466Z,9.661456
2023-01-01T05:08:03.470Z,9.661629
2023-01-01T05:09:03.544Z,9.661603
2023-01-01T05:10:03.413Z,9.661810
2023-01-01T05:11:03.406Z,9.661772
2023-01-01T05:12:03.451Z,9.661785
2023-01-01T05:13:03.435Z,9.661604
2023-01-01T05:14:03.525Z,9.661512
2023-01-01T05:15:03.445Z,9.661600
2023-01-01T05:16:03.483Z,9.661669
2023-01-01T05:17:03.412Z,9.661668
2023-01-01T05:18:03.399Z,9.661602
2023-01-01T05:19:03.390Z,9.661561
2023-01-01T05:20:03.370Z,9.661602
2023-01-01T05:21:03.415Z,9.661602
2023-01-01T05:22:10.173Z,9.661711
2023-01-01T05:23:05.386Z,9.661692
2023-01-01T05:24:03.360Z,9.661619
2023-01-01T05:25:03.384Z,9.661636
2023-01-01T05:26:03.359Z,9.661683
2023-01-01T05:27:03.384Z,9.661663
2023-01-01T05:28:03.345Z,9.661609
2023-01-01T05:29:03.360Z,9.661699
2023-01-01T05:30:03.300Z,9.661700
2023-01-01T05:31:03.442Z,9.661842
2023-01-01T05:32:03.348Z,9.661730
2023-01-01T05:33:03.322Z,9.661860
2023-01-01T06:09:00.005Z,9.661576
2023-01-01T06:09:59.992Z,9.661617
2023-01-01T06:11:00.012Z,9.661609
2023-01-01T06:12:00.099Z,9.661535
2023-01-01T06:12:59.997Z,9.661548
2023-01-01T06:13:59.951Z,9.661551
2023-01-01T06:15:00.013Z,9.661580
2023-01-01T06:15:59.976Z,9.661585
2023-01-01T06:17:00.106Z,9.661598
2023-01-01T06:17:59.992Z,9.661609
2023-01-01T06:18:59.949Z,9.661543
2023-01-01T06:19:59.932Z,9.661551
2023-01-01T06:20:59.953Z,9.661572
2023-01-01T06:21:59.928Z,9.661536
2023-01-01T06:23:00.958Z,9.661531
2023-01-01T06:23:59.910Z,9.661570
2023-01-01T06:24:59.960Z,9.661465
2023-01-01T06:25:59.930Z,9.661532
2023-01-01T06:26:59.946Z,9.661522
2023-01-01T06:27:59.955Z,9.661474
2023-01-01T06:28:59.929Z,9.661543
2023-01-01T06:29:59.928Z,9.661504
2023-01-01T06:30:59.894Z,9.661442
2023-01-01T06:31:59.896Z,9.661454
2023-01-01T06:32:59.895Z,9.661492
2023-01-01T06:33:59.873Z,9.661469
2023-01-01T06:34:59.878Z,9.661577
2023-01-01T06:35:59.839Z,9.661541
2023-01-01T06:37:04.743Z,9.661505
2023-01-01T06:38:00.958Z,9.661483
2023-01-01T06:38:59.827Z,9.661540
2023-01-01T06:39:59.802Z,9.661705
2023-01-01T06:40:59.832Z,9.661698
2023-01-01T06:41:59.876Z,9.661734
2023-01-01T06:42:59.840Z,9.661956
2023-01-01T06:43:59.817Z,9.661855
2023-01-01T06:44:59.817Z,9.662298
2023-01-01T06:45:59.848Z,9.662089
2023-01-01T06:46:59.826Z,9.662037
2023-01-01T06:47:59.800Z,9.662037
2023-01-01T06:48:59.781Z,9.661718
2023-01-01T06:49:59.788Z,9.661459
2023-01-01T06:50:59.754Z,9.661467
2023-01-01T06:51:59.768Z,9.661386
2023-01-01T06:52:59.750Z,9.660910
2023-01-01T06:53:59.732Z,9.661573
2023-01-01T06:54:59.817Z,9.661600
2023-01-01T06:55:59.748Z,9.661574
2023-01-01T06:56:59.714Z,9.661636
2023-01-01T06:57:59.728Z,9.661627
2023-01-01T06:58:59.720Z,9.661628
2023-01-01T06:59:59.815Z,9.661422
2023-01-01T07:01:04.802Z,9.661403
2023-01-01T07:02:01.862Z,9.661766
2023-01-01T07:02:59.981Z,9.661529
2023-01-01T07:03:59.697Z,9.661614
2023-01-01T07:04:59.699Z,9.661550
2023-01-01T07:05:59.809Z,9.661581
2023-01-01T07:06:59.694Z,9.661646
2023-01-01T07:07:59.622Z,9.661511
2023-01-01T07:08:59.650Z,9.661720
2023-01-01T07:09:59.685Z,9.661871
2023-01-01T07:10:59.713Z,9.661658
2023-01-01T07:11:59.617Z,9.661522
2023-01-01T07:12:59.633Z,9.661613
2023-01-01T07:13:59.613Z,9.661347
2023-01-01T07:14:59.603Z,9.661427
2023-01-01T07:15:59.675Z,9.661605
2023-01-01T07:16:59.716Z,9.662080
2023-01-01T07:17:59.618Z,9.661779
2023-01-01T07:18:59.629Z,9.661579
2023-01-01T07:19:59.559Z,9.661854
2023-01-01T07:20:59.573Z,9.661842
2023-01-01T07:21:59.601Z,9.661577
2023-01-01T07:22:59.540Z,9.661506
2023-01-01T07:23:59.588Z,9.661466
2023-01-01T07:24:59.546Z,9.661604
2023-01-01T07:25:59.529Z,9.661509
2023-01-01T07:26:59.560Z,9.661715
2023-01-01T07:27:59.609Z,9.661588
2023-01-01T07:29:06.376Z,9.661381
2023-01-01T07:30:00.513Z,9.661294
2023-01-01T07:30:59.563Z,9.661500
2023-01-01T07:31:59.515Z,9.661697
2023-01-01T07:32:59.536Z,9.661492
2023-01-01T07:33:59.476Z,9.661453
2023-01-01T07:34:59.487Z,9.661629
2023-01-01T07:35:59.476Z,9.662318
2023-01-01T07:36:59.474Z,9.662189
2023-01-01T07:37:59.465Z,9.662034
2023-01-01T07:38:59.500Z,9.661859
2023-01-01T07:40:00.492Z,9.662168
2023-01-01T07:40:59.456Z,9.661800
2023-01-01T07:41:59.466Z,9.661894
2023-01-01T07:42:59.450Z,9.661863
2023-01-01T07:43:59.491Z,9.661892
2023-01-01T07:44:59.430Z,9.662382
2023-01-01T07:45:59.529Z,9.661929
2023-01-01T07:46:59.447Z,9.661903
2023-01-01T07:47:59.439Z,9.661852
2023-01-01T07:48:59.371Z,9.661730
2023-01-01T07:49:59.444Z,9.661713
2023-01-01T07:50:59.404Z,9.661714
2023-01-01T07:51:59.375Z,9.661686
2023-01-01T07:52:59.410Z,9.661820
2023-01-01T07:54:04.137Z,9.661829
2023-01-01T07:55:00.391Z,9.661897
2023-01-01T07:55:59.342Z,9.661798
2023-01-01T07:56:59.366Z,9.661622
2023-01-01T07:57:59.346Z,9.661847
2023-01-01T07:58:59.323Z,9.661834
2023-01-01T07:59:59.327Z,9.661557
2023-01-01T08:00:59.355Z,9.661648
2023-01-01T08:01:59.387Z,9.661585
2023-01-01T08:02:59.403Z,9.661448
2023-01-01T08:03:59.303Z,9.661637
2023-01-01T08:04:59.341Z,9.661559
2023-01-01T08:05:59.335Z,9.661655
2023-01-01T08:06:59.321Z,9.661531
2023-01-01T08:07:59.271Z,9.661627
2023-01-01T08:08:59.318Z,9.661592
2023-01-01T08:09:59.294Z,9.661777
2023-01-01T08:11:03.593Z,9.661603
2023-01-01T08:12:00.257Z,9.661748
2023-01-01T08:12:59.264Z,9.661598
2023-01-01T08:13:59.267Z,9.661779
2023-01-01T08:14:59.309Z,9.661975
2023-01-01T08:15:59.323Z,9.662006
2023-01-01T08:16:59.249Z,9.661854
2023-01-01T08:17:59.231Z,9.661773
2023-01-01T08:18:59.203Z,9.661786
2023-01-01T08:19:59.230Z,9.661725
2023-01-01T08:20:59.244Z,9.661756
2023-01-01T08:21:59.228Z,9.661757
2023-01-01T08:23:06.318Z,9.661870
2023-01-01T08:24:01.210Z,9.661775
2023-01-01T08:24:59.186Z,9.661665
2023-01-01T08:25:59.213Z,9.661858
2023-01-01T08:27:00.159Z,9.662131
2023-01-01T08:27:59.179Z,9.662248
2023-01-01T08:28:59.211Z,9.662291
2023-01-01T08:29:59.153Z,9.662024
2023-01-01T08:30:59.449Z,9.661779
2023-01-01T08:31:59.109Z,9.661757
2023-01-01T08:32:59.162Z,9.661764
2023-01-01T08:33:59.131Z,9.661700
2023-01-01T08:34:59.131Z,9.661595
2023-01-01T08:35:59.144Z,9.661632
2023-01-01T08:36:59.146Z,9.661654
2023-01-01T08:37:59.104Z,9.661806
2023-01-01T08:38:59.096Z,9.661729
2023-01-01T08:39:59.082Z,9.661583
2023-01-01T08:40:59.085Z,9.661631
2023-01-01T08:41:59.102Z,9.661522
2023-01-01T08:42:59.068Z,9.661677
2023-01-01T08:43:59.058Z,9.661654
2023-01-01T08:44:59.070Z,9.661604
2023-01-01T08:45:59.054Z,9.661573
2023-01-01T08:46:59.110Z,9.661496
2023-01-01T08:47:59.045Z,9.661498
2023-01-01T08:48:59.053Z,9.661494
2023-01-01T08:49:59.032Z,9.661501
2023-01-01T08:51:00.039Z,9.661520
2023-01-01T08:51:59.056Z,9.661426
2023-01-01T08:52:59.107Z,9.661366
2023-01-01T08:53:59.029Z,9.661345
2023-01-01T08:54:59.021Z,9.661086
2023-01-01T08:55:58.986Z,9.660973
2023-01-01T08:56:58.967Z,9.661243
2023-01-01T08:57:59.017Z,9.661543
2023-01-01T08:59:04.263Z,9.661611
2023-01-01T08:59:58.969Z,9.661327
2023-01-01T09:00:58.977Z,9.661281
2023-01-01T09:01:59.082Z,9.661266
2023-01-01T09:02:59.073Z,9.661345
2023-01-01T09:03:58.973Z,9.661093
2023-01-01T09:04:58.963Z,9.660966
2023-01-01T09:05:58.946Z,9.661304
2023-01-01T09:06:58.926Z,9.661406
2023-01-01T09:07:58.907Z,9.661272
2023-01-01T09:08:58.958Z,9.661337
2023-01-01T09:09:58.901Z,9.661485
2023-01-01T09:10:58.937Z,9.661579
2023-01-01T09:11:58.866Z,9.661550
2023-01-01T09:12:58.864Z,9.661488
2023-01-01T09:13:58.894Z,9.661561
2023-01-01T09:14:58.895Z,9.661398
2023-01-01T09:15:58.945Z,9.661322
2023-01-01T09:16:58.886Z,9.661448
2023-01-01T09:17:58.885Z,9.661485
2023-01-01T09:18:58.877Z,9.661669
2023-01-01T09:19:58.887Z,9.661804
2023-01-01T09:20:58.870Z,9.661526
2023-01-01T09:21:58.817Z,9.661592
2023-01-01T09:23:05.480Z,9.661613
2023-01-01T09:24:00.837Z,9.661426
2023-01-01T09:24:58.848Z,9.661472
2023-01-01T09:25:58.827Z,9.661439
2023-01-01T09:26:58.807Z,9.661371
2023-01-01T09:27:58.837Z,9.661418
2023-01-01T09:28:58.811Z,9.661405
2023-01-01T09:29:58.824Z,9.661390
2023-01-01T09:30:58.787Z,9.661356
2023-01-01T09:31:58.798Z,9.661444
2023-01-01T09:32:58.807Z,9.661390
2023-01-01T09:33:58.754Z,9.661538
2023-01-01T09:34:58.777Z,9.661567
2023-01-01T09:35:58.775Z,9.661492
2023-01-01T09:36:58.752Z,9.661538
2023-01-01T09:37:58.749Z,9.661518
2023-01-01T09:38:58.768Z,9.661514
2023-01-01T09:39:58.714Z,9.661419
2023-01-01T09:40:58.741Z,9.661443
2023-01-01T09:41:58.734Z,9.661455
2023-01-01T09:42:58.729Z,9.661427
2023-01-01T09:43:58.746Z,9.661453
2023-01-01T09:44:58.745Z,9.661505
2023-01-01T09:45:58.754Z,9.661515
2023-01-01T09:46:58.681Z,9.661488
2023-01-01T09:47:58.742Z,9.661514
2023-01-01T09:48:58.711Z,9.661489
2023-01-01T09:49:58.684Z,9.661461
2023-01-01T09:50:58.635Z,9.661444
2023-01-01T09:51:58.697Z,9.661366
2023-01-01T09:52:58.640Z,9.661497
2023-01-01T09:53:58.648Z,9.661467
2023-01-01T09:54:59.543Z,9.661624
2023-01-01T09:55:58.652Z,9.661563
2023-01-01T09:56:58.632Z,9.661532
2023-01-01T09:57:58.655Z,9.661429
2023-01-01T09:58:58.644Z,9.661460
2023-01-01T09:59:58.584Z,9.661529
2023-01-01T10:00:58.686Z,9.661540
2023-01-01T10:01:58.704Z,9.661524
2023-01-01T10:02:58.571Z,9.661549
2023-01-01T10:03:58.654Z,9.661519
2023-01-01T10:04:58.587Z,9.661446
2023-01-01T10:05:58.587Z,9.661444
2023-01-01T10:06:58.570Z,9.661435
2023-01-01T10:07:58.534Z,9.661447
2023-01-01T10:08:58.561Z,9.661481
2023-01-01T10:09:58.577Z,9.661489
2023-01-01T10:10:58.526Z,9.661465
2023-01-01T10:11:58.535Z,9.661442
2023-01-01T10:12:58.543Z,9.661521
2023-01-01T10:13:58.564Z,9.661464
2023-01-01T10:15:00.990Z,9.661457
2023-01-01T10:15:59.511Z,9.661442
2023-01-01T10:16:58.546Z,9.661398
2023-01-01T10:17:58.500Z,9.661514
2023-01-01T10:18:58.512Z,9.661586
2023-01-01T10:19:58.490Z,9.661468
2023-01-01T10:20:58.489Z,9.661509
2023-01-01T10:21:58.507Z,9.661519
2023-01-01T10:22:58.461Z,9.661446
2023-01-01T10:23:58.445Z,9.661568
2023-01-01T10:24:58.470Z,9.661590
2023-01-01T10:25:58.490Z,9.661482
2023-01-01T10:26:58.455Z,9.661497
2023-01-01T10:27:59.769Z,9.661696
2023-01-01T10:28:59.416Z,9.661500
2023-01-01T10:30:03.671Z,9.661499
2023-01-01T10:30:59.546Z,9.661583
2023-01-01T10:31:58.467Z,9.661530
2023-01-01T10:32:58.406Z,9.661617
2023-01-01T10:33:58.410Z,9.661545
2023-01-01T10:34:58.415Z,9.661705
2023-01-01T10:35:58.390Z,9.661569
2023-01-01T10:36:58.402Z,9.661555
2023-01-01T10:37:58.372Z,9.661392
2023-01-01T10:38:58.426Z,9.661814
2023-01-01T10:39:58.377Z,9.661502
2023-01-01T10:40:58.376Z,9.661583
2023-01-01T10:41:58.362Z,9.661605
2023-01-01T10:42:58.328Z,9.661530
2023-01-01T10:43:58.302Z,9.661670
2023-01-01T10:44:58.347Z,9.661437
2023-01-01T10:45:58.340Z,9.661341
2023-01-01T10:46:58.308Z,9.661498
2023-01-01T10:47:58.326Z,9.661567
2023-01-01T10:48:58.302Z,9.661769
2023-01-01T10:49:58.271Z,9.661699
2023-01-01T10:50:58.303Z,9.661613
2023-01-01T10:51:58.269Z,9.661632
2023-01-01T10:52:58.436Z,9.661505
2023-01-01T10:53:58.301Z,9.661567
2023-01-01T10:54:58.276Z,9.661472
2023-01-01T10:55:58.262Z,9.661417
2023-01-01T10:56:58.278Z,9.661378
2023-01-01T10:57:58.296Z,9.661538
2023-01-01T10:58:58.316Z,9.661575
2023-01-01T10:59:58.239Z,9.661550
2023-01-01T11:00:58.279Z,9.661477
2023-01-01T11:01:58.378Z,9.661505
2023-01-01T11:02:58.249Z,9.661445
2023-01-01T11:03:58.245Z,9.661293
2023-01-01T11:04:58.210Z,9.661390
2023-01-01T11:05:58.197Z,9.661412
2023-01-01T11:06:58.209Z,9.661397
2023-01-01T11:07:58.189Z,9.661471
2023-01-01T11:08:58.208Z,9.661483
2023-01-01T11:10:03.630Z,9.661450
2023-01-01T11:10:59.200Z,9.661518
2023-01-01T11:12:03.585Z,9.661468
2023-01-01T11:13:05.110Z,9.661540
2023-01-01T11:14:00.128Z,9.661530
2023-01-01T11:14:58.185Z,9.661553
2023-01-01T11:15:58.148Z,9.661525
2023-01-01T11:16:58.140Z,9.661472
2023-01-01T11:17:58.110Z,9.661501
2023-01-01T11:18:58.111Z,9.661412
2023-01-01T11:20:01.818Z,9.661430
2023-01-01T11:20:59.165Z,9.661462
2023-01-01T11:21:58.104Z,9.661619
2023-01-01T11:22:58.056Z,9.661643
2023-01-01T11:23:58.086Z,9.661492
2023-01-01T11:24:58.074Z,9.661506
2023-01-01T11:25:58.075Z,9.661446
2023-01-01T11:26:58.089Z,9.661472
2023-01-01T11:27:58.063Z,9.661507
2023-01-01T11:28:58.057Z,9.661442
2023-01-01T11:29:58.070Z,9.661435
2023-01-01T11:30:58.087Z,9.661510
2023-01-01T11:31:58.042Z,9.661584
2023-01-01T11:32:58.012Z,9.661550
2023-01-01T11:33:58.015Z,9.661593
2023-01-01T11:34:58.011Z,9.661530
2023-01-01T11:35:58.005Z,9.661485
2023-01-01T11:36:58.071Z,9.661490
2023-01-01T11:37:58.008Z,9.661523
2023-01-01T11:38:58.005Z,9.661544
2023-01-01T11:39:58.004Z,9.661609
2023-01-01T11:40:57.972Z,9.661521
2023-01-01T11:41:58.010Z,9.661687
2023-01-01T11:42:58.745Z,9.661705
2023-01-01T11:43:57.950Z,9.661609
2023-01-01T11:44:57.966Z,9.661614
2023-01-01T11:45:58.008Z,9.661652
2023-01-01T11:46:57.918Z,9.661656
2023-01-01T11:47:57.999Z,9.661670
2023-01-01T11:48:57.980Z,9.661696
2023-01-01T11:49:57.917Z,9.661674
2023-01-01T11:50:57.976Z,9.661802
2023-01-01T11:51:57.953Z,9.661741
2023-01-01T11:52:58.016Z,9.661736
2023-01-01T11:53:57.893Z,9.661638
2023-01-01T11:54:57.904Z,9.661661
2023-01-01T11:55:57.915Z,9.661512
2023-01-01T11:56:57.893Z,9.661701
2023-01-01T11:57:57.906Z,9.661543
2023-01-01T11:58:58.037Z,9.661622
2023-01-01T11:59:57.894Z,9.661576
2023-01-01T12:00:57.876Z,9.661582
2023-01-01T12:01:57.885Z,9.661637
2023-01-01T12:02:57.849Z,9.661572
2023-01-01T12:03:57.944Z,9.661632
2023-01-01T12:04:57.827Z,9.661871
2023-01-01T12:05:57.846Z,9.661880
2023-01-01T12:06:57.816Z,9.661712
2023-01-01T12:07:57.813Z,9.661555
2023-01-01T12:08:57.842Z,9.661573
2023-01-01T12:09:57.864Z,9.661683
2023-01-01T12:10:57.806Z,9.661582
2023-01-01T12:11:57.810Z,9.661604
2023-01-01T12:12:57.777Z,9.661594
2023-01-01T12:13:57.792Z,9.661577
2023-01-01T12:14:57.909Z,9.661447
2023-01-01T12:15:57.819Z,9.661491
2023-01-01T12:16:57.764Z,9.661516
2023-01-01T12:17:57.756Z,9.661518
2023-01-01T12:18:57.755Z,9.661539
2023-01-01T12:19:57.791Z,9.661526
2023-01-01T12:20:57.854Z,9.661584
2023-01-01T12:21:58.834Z,9.661551
2023-01-01T12:22:57.710Z,9.661535
2023-01-01T12:23:57.740Z,9.661510
2023-01-01T12:24:57.726Z,9.661464
2023-01-01T12:25:57.744Z,9.661510
2023-01-01T12:26:57.703Z,9.661584
2023-01-01T12:27:57.708Z,9.661557
2023-01-01T12:28:57.679Z,9.661571
2023-01-01T12:29:57.660Z,9.661576
2023-01-01T12:30:57.720Z,9.661550
2023-01-01T12:31:58.659Z,9.661608
2023-01-01T12:33:02.073Z,9.661546
2023-01-01T12:33:58.667Z,9.661502
2023-01-01T12:34:57.661Z,9.661520
2023-01-01T12:35:57.698Z,9.661555
2023-01-01T12:36:57.680Z,9.661669
2023-01-01T12:37:57.623Z,9.661707
2023-01-01T12:38:57.609Z,9.661545
2023-01-01T12:39:57.657Z,9.661439
2023-01-01T12:40:57.642Z,9.661502
2023-01-01T12:41:57.601Z,9.661543
2023-01-01T12:42:57.723Z,9.661445
2023-01-01T12:43:57.603Z,9.661391
2023-01-01T12:44:57.575Z,9.661526
2023-01-01T12:45:57.623Z,9.661437
2023-01-01T12:46:57.591Z,9.661434